Terminal Aerodrome Forecast
Issued by NWS Birmingham, AL

Home | Current Version | Previous Version | Text Only | Print | Product List | Glossary On
Versions: 1 2 3 4 5 6 7 8 9 10 11 12 13 14 15 16 17
000
FTUS44 KBMX 162300
TAFBHM
TAF
KBHM 162334Z 1700/1724 35006KT P6SM SCT050 SCT150
     FM170900 33004KT P6SM SCT015 BKN040
     FM171400 33007KT P6SM SCT250=

USA.gov is the U.S. government's official web portal to all federal, state and local government web resources and services.